• Join FlightAware (Why Join?)
  • Login
  • US Flag 
06:04AM EDT


 

Airport Tracker/Info


-or-


 

Live Flight TrackerFlight Track Log ✈ UPS1122 ✈ 07-May-2013 ✈ KPHL - KBDL

Flight Track Log - Related Links

Times and Time Zones

All times are in EDT time to prevent confusion due to time zone crossing. See the UPS1122 flight status page for this flight to view local times or setup timezone preferences in your user account.

Time Position Orientation Groundspeed Altitude Reporting Facility
EDT Latitude Longitude Course Direction KTS MPH feet Rate Location/Type
03:43AM 39.8630 -75.2650 218° Southwest 125 144  Level FlightAware
03:43AM 39.8673 -75.2425 76° East 144 166 1,300 6,300 Climbing FlightAware ADS-B
03:43AM 39.8698 -75.2314 74° East 161 185 1,800 1,800 Climbing FlightAware ADS-B
03:43AM 39.8722 -75.2213 73° East 182 209 2,000 1,560 Climbing FlightAware ADS-B
03:44AM 39.8767 -75.2038 71° East 200 230 2,500 2,520 Climbing FlightAware ADS-B
03:44AM 39.8806 -75.1887 71° East 202 232 3,200 3,360 Climbing FlightAware ADS-B
03:44AM 39.8813 -75.1850 76° East 202 232 3,400 3,000 Climbing FlightAware ADS-B
03:44AM 39.8821 -75.1800 78° East 203 234 3,600 2,640 Climbing FlightAware ADS-B
03:44AM 39.8825 -75.1749 84° East 205 236 3,800 3,000 Climbing FlightAware ADS-B
03:44AM 39.8824 -75.1699 91° East 208 239 4,000 2,520 Climbing FlightAware ADS-B
03:44AM 39.8822 -75.1656 93° East 212 244 4,100 1,500 Climbing FlightAware ADS-B
03:44AM 39.8814 -75.1602 101° East 219 252 4,200 1,200 Climbing FlightAware ADS-B
03:44AM 39.8802 -75.1534 103° East 227 261 4,300 1,500 Climbing FlightAware ADS-B
03:44AM 39.8779 -75.1434 107° East 239 275 4,500 1,860 Climbing FlightAware ADS-B
03:45AM 39.8736 -75.1212 104° East 255 293 5,000 2,760 Climbing FlightAware ADS-B
03:45AM 39.8699 -75.1017 104° East 256 295 5,800 3,480 Climbing FlightAware ADS-B
03:45AM 39.8654 -75.0783 104° East 261 300 6,700 3,180 Climbing FlightAware ADS-B
03:45AM 39.8605 -75.0533 104° East 265 305 7,500 3,240 Climbing FlightAware ADS-B
03:46AM 39.8558 -75.0297 105° East 265 305 8,400 3,420 Climbing FlightAware ADS-B
03:46AM 39.8516 -75.0099 105° East 267 307 9,100 3,180 Climbing FlightAware ADS-B
03:46AM 39.8467 -74.9861 105° East 272 313 9,900 2,220 Climbing FlightAware ADS-B
03:47AM 39.8365 -74.9352 105° East 305 351 10,800 1,500 Climbing FlightAware ADS-B
03:47AM 39.8260 -74.8802 104° East 337 388 11,400 1,860 Climbing FlightAware ADS-B
03:48AM 39.8132 -74.8146 104° East 350 403 12,700 2,520 Climbing FlightAware ADS-B
03:48AM 39.8052 -74.7734 104° East 356 410 13,600 2,640 Climbing FlightAware ADS-B
03:48AM 39.8041 -74.7631 98° East 359 413 13,800 2,520 Climbing FlightAware ADS-B
03:48AM 39.8059 -74.7325 86° East 365 420 14,400 2,460 Climbing FlightAware ADS-B
03:48AM 39.8077 -74.7244 74° East 367 422 14,500 2,400 Climbing FlightAware ADS-B
03:48AM 39.8121 -74.7108 67° East 371 427 14,800 2,580 Climbing FlightAware ADS-B
03:49AM 39.8209 -74.6934 57° Northeast 378 435 15,200 2,280 Climbing FlightAware ADS-B
03:49AM 39.8261 -74.6859 48° Northeast 380 437 15,300 2,220 Climbing FlightAware ADS-B
03:49AM 39.8416 -74.6683 41° Northeast 383 441 15,800 2,280 Climbing FlightAware ADS-B
03:49AM 39.8866 -74.6273 35° Northeast 394 453 16,900 2,220 Climbing FlightAware ADS-B
03:50AM 39.9347 -74.5827 35° Northeast 400 460 18,100 2,160 Climbing FlightAware ADS-B
03:50AM 39.9806 -74.5405 35° Northeast 406 467 19,200 2,040 Climbing FlightAware ADS-B
03:51AM 40.0285 -74.4967 35° Northeast 411 473 20,200 1,980 Climbing FlightAware ADS-B
03:51AM 40.0760 -74.4532 35° Northeast 417 480 21,200 1,860 Climbing FlightAware ADS-B
03:52AM 40.1239 -74.4094 35° Northeast 422 486 22,100 1,620 Climbing FlightAware ADS-B
03:52AM 40.1723 -74.3650 35° Northeast 417 480 22,900 900 Climbing FlightAware ADS-B
03:53AM 40.2205 -74.3204 35° Northeast 416 479 23,000 60 Climbing FlightAware ADS-B
03:53AM 40.2681 -74.2762 35° Northeast 416 479 23,000  Level FlightAware ADS-B
03:54AM 40.3150 -74.2326 35° Northeast 417 480 23,000  Level FlightAware ADS-B
03:54AM 40.3633 -74.1878 35° Northeast 416 479 23,000  Level FlightAware ADS-B
03:55AM 40.4109 -74.1434 35° Northeast 414 476 23,000  Level FlightAware ADS-B
03:55AM 40.4583 -74.0991 35° Northeast 413 475 23,000  Level FlightAware ADS-B
03:56AM 40.5054 -74.0552 35° Northeast 413 475 23,000  Level FlightAware ADS-B
03:56AM 40.5531 -74.0109 35° Northeast 412 474 23,000  Level FlightAware ADS-B
03:57AM 40.6003 -73.9675 35° Northeast 412 474 23,000  Level FlightAware ADS-B
03:57AM 40.6479 -73.9238 35° Northeast 412 474 23,000  Level FlightAware ADS-B
03:58AM 40.6951 -73.8801 35° Northeast 412 474 23,000  Level FlightAware ADS-B
03:59AM 40.7422 -73.8362 35° Northeast 411 473 23,000  Level FlightAware ADS-B
03:59AM 40.7896 -73.7919 35° Northeast 412 474 23,000  Level FlightAware ADS-B
04:00AM 40.8369 -73.7473 35° Northeast 413 475 23,000  Level FlightAware ADS-B
04:00AM 40.8839 -73.7027 36° Northeast 413 475 23,000  Level FlightAware ADS-B
04:01AM 40.9313 -73.6578 36° Northeast 414 476 23,000  Level FlightAware ADS-B
04:01AM 40.9784 -73.6130 36° Northeast 414 476 23,000  Level FlightAware ADS-B
04:02AM 41.0256 -73.5682 36° Northeast 413 475 23,000 -1,140 Level FlightAware ADS-B
04:02AM 41.0736 -73.5224 36° Northeast 416 479 21,900 -2,340 Descending FlightAware ADS-B
04:03AM 41.1203 -73.4779 36° Northeast 408 470 20,700 -2,400 Descending FlightAware ADS-B
04:03AM 41.1660 -73.4341 36° Northeast 397 457 19,500 -2,280 Descending FlightAware ADS-B
04:04AM 41.2110 -73.3911 36° Northeast 390 449 18,400 -2,280 Descending FlightAware ADS-B
04:04AM 41.2556 -73.3482 36° Northeast 385 443 17,200 -2,280 Descending FlightAware ADS-B
04:05AM 41.3077 -73.2979 36° Northeast 381 438 15,900 -2,160 Descending FlightAware ADS-B
04:05AM 41.3651 -73.2434 35° Northeast 364 419 14,500 -1,200 Descending FlightAware ADS-B
04:06AM 41.4140 -73.2030 32° Northeast 356 410 14,300 -180 Descending FlightAware
04:07AM 41.4610 -73.1630 33° Northeast 356 410 14,300  Level FlightAware
04:07AM 41.5090 -73.1230 32° Northeast 356 410 14,300 -4,080 Level FlightAware
04:08AM 41.5461 -73.0919 32° Northeast 325 374 10,100 -7,200 Descending Boston Center
04:08AM 41.5628 -73.0756 36° Northeast 289 333 9,500 -2,100 Descending Boston Center
04:09AM 41.6111 -73.0342 33° Northeast 292 336 8,000 -2,580 Descending Boston Center
04:09AM 41.6258 -73.0206 35° Northeast 273 314 6,900 -2,700 Descending Boston Center
04:10AM 41.6947 -72.9656 31° Northeast 274 315 4,400 -1,980 Descending Boston Center
04:11AM 41.7469 -72.9186 34° Northeast 269 310 3,200 -780 Descending Boston Center
04:12AM 41.8078 -72.8633 34° Northeast 242 278 3,000 -360 Descending Boston Center
04:13AM 41.8453 -72.8136 45° Northeast 197 227 2,500 -720 Descending Boston Center
04:14AM 41.8811 -72.7664 44° Northeast 177 204 1,600 -840 Descending Boston Center
04:15AM 41.9103 -72.7303 43° Northeast 144 166 800 -840 Descending Boston Center
04:17AM 41.9333 -72.6833 29° Northeast  Level FlightAware Approximate
04:24AM 41.9392 -72.6834 29° Northeast  Level Estimated
04:25AM 41.9333 -72.6833 29° Northeast  Level FlightAware Approximate
04:26AM 41.9392 -72.6834 29° Northeast  Level Estimated
04:27AM 41.9333 -72.6833 29° Northeast  Level FlightAware Approximate
04:28AM 41.9392 -72.6834 29° Northeast  Level Estimated
04:29AM 41.9333 -72.6833 29° Northeast  Level FlightAware Approximate
04:30AM 41.9392 -72.6834 29° Northeast  Level Estimated
04:31AM 41.9333 -72.6833 29° Northeast  Level FlightAware Approximate